Terminal Aerodrome Forecast
Issued by NWS

Home | Current Version | Previous Version | Graphics & Text | Print | Product List | Glossary On
Versions: 1 2 3 4 5 6 7 8 9 10 11 12 13 14 15 16 17 18 19 20
848
FTUS43 KUNR 121308 AAB
TAFGCC
TAF AMD
KGCC 121308Z 1213/1312 02005KT 1/4SM FZFG OVC002
     FM121600 12005KT P6SM OVC025
     FM121900 13007KT P6SM OVC090
     FM130100 19015KT P6SM OVC012=

USA.gov is the U.S. government's official web portal to all federal, state and local government web resources and services.